Lovell, Maine
Current Conditions -  °F | °C
As of 8:54 AM on Thursday 27 Nov 2014 (Local Time) from KIZG Reporting Station
NA  
Wind Chill: 27°   Ceiling: NA
Heat Index: 32°   Visibility: 10mi
Dew Point: 24°   Wind: 5mph
Humidity: 73%   Direction: 320°NW
Pressure: 29.88"   Gusts: NA
Location:  44.13°N, 70.89°W
Report Text: KIZG 271354Z AUTO 32004KT 10SM 00/M04 A2988 RMK AO2 SLP123 I1000 T00001044 $
Loading
Personal Weather Stations






























Interactive Weather Map New forecast layout! Learn more

10-Day Weather Forecast

Advertisements
Track Severe Weather on mobile